sensor_id;sensor_type;location;lat;lon;timestamp;P1;durP1;ratioP1;P2;durP2;ratioP2
17207;SDS011;8720;48.488;9.202;2023-02-25T00:00:44;5.40;;;4.63;;
17207;SDS011;8720;48.488;9.202;2023-02-25T00:03:12;5.20;;;4.70;;
17207;SDS011;8720;48.488;9.202;2023-02-25T00:05:43;6.00;;;4.97;;
17207;SDS011;8720;48.488;9.202;2023-02-25T00:08:12;5.83;;;4.80;;
17207;SDS011;8720;48.488;9.202;2023-02-25T00:10:40;5.90;;;4.80;;
17207;SDS011;8720;48.488;9.202;2023-02-25T00:13:07;4.80;;;4.40;;
17207;SDS011;8720;48.488;9.202;2023-02-25T00:15:36;5.30;;;4.40;;
17207;SDS011;8720;48.488;9.202;2023-02-25T00:18:06;5.40;;;4.60;;
17207;SDS011;8720;48.488;9.202;2023-02-25T00:20:37;6.43;;;4.90;;
17207;SDS011;8720;48.488;9.202;2023-02-25T00:23:05;7.70;;;4.83;;
17207;SDS011;8720;48.488;9.202;2023-02-25T00:25:34;5.53;;;5.03;;
17207;SDS011;8720;48.488;9.202;2023-02-25T00:28:02;5.70;;;4.77;;
17207;SDS011;8720;48.488;9.202;2023-02-25T00:30:30;5.20;;;4.33;;
17207;SDS011;8720;48.488;9.202;2023-02-25T00:32:58;7.03;;;5.43;;
17207;SDS011;8720;48.488;9.202;2023-02-25T00:35:25;6.33;;;4.77;;
17207;SDS011;8720;48.488;9.202;2023-02-25T00:37:53;5.53;;;4.33;;
17207;SDS011;8720;48.488;9.202;2023-02-25T00:40:20;5.93;;;5.33;;
17207;SDS011;8720;48.488;9.202;2023-02-25T00:42:49;7.47;;;5.50;;
17207;SDS011;8720;48.488;9.202;2023-02-25T00:45:16;9.13;;;5.00;;
17207;SDS011;8720;48.488;9.202;2023-02-25T00:47:44;5.97;;;4.87;;
17207;SDS011;8720;48.488;9.202;2023-02-25T00:50:11;6.60;;;5.73;;
17207;SDS011;8720;48.488;9.202;2023-02-25T00:52:39;8.03;;;5.00;;
17207;SDS011;8720;48.488;9.202;2023-02-25T00:55:07;6.83;;;5.97;;
17207;SDS011;8720;48.488;9.202;2023-02-25T00:57:35;5.63;;;4.90;;
17207;SDS011;8720;48.488;9.202;2023-02-25T01:00:04;6.10;;;5.33;;
17207;SDS011;8720;48.488;9.202;2023-02-25T01:02:35;5.97;;;5.23;;
17207;SDS011;8720;48.488;9.202;2023-02-25T01:05:03;7.43;;;5.53;;
17207;SDS011;8720;48.488;9.202;2023-02-25T01:07:31;7.77;;;5.10;;
17207;SDS011;8720;48.488;9.202;2023-02-25T01:09:59;6.13;;;5.20;;
17207;SDS011;8720;48.488;9.202;2023-02-25T01:12:26;6.40;;;5.33;;
17207;SDS011;8720;48.488;9.202;2023-02-25T01:14:54;6.20;;;5.13;;
17207;SDS011;8720;48.488;9.202;2023-02-25T01:17:23;7.73;;;5.73;;
17207;SDS011;8720;48.488;9.202;2023-02-25T01:19:50;7.13;;;5.70;;
17207;SDS011;8720;48.488;9.202;2023-02-25T01:22:18;7.27;;;5.60;;
17207;SDS011;8720;48.488;9.202;2023-02-25T01:24:46;7.47;;;5.30;;
17207;SDS011;8720;48.488;9.202;2023-02-25T01:27:13;6.10;;;5.50;;
17207;SDS011;8720;48.488;9.202;2023-02-25T01:29:41;8.80;;;5.93;;
17207;SDS011;8720;48.488;9.202;2023-02-25T01:32:10;6.30;;;5.57;;
17207;SDS011;8720;48.488;9.202;2023-02-25T01:34:41;8.57;;;5.50;;
17207;SDS011;8720;48.488;9.202;2023-02-25T01:37:08;6.70;;;5.87;;
17207;SDS011;8720;48.488;9.202;2023-02-25T01:39:38;7.90;;;6.20;;
17207;SDS011;8720;48.488;9.202;2023-02-25T01:42:10;7.57;;;5.40;;
17207;SDS011;8720;48.488;9.202;2023-02-25T01:48:02;8.00;;;5.67;;
17207;SDS011;8720;48.488;9.202;2023-02-25T01:50:43;9.53;;;5.90;;
17207;SDS011;8720;48.488;9.202;2023-02-25T01:53:17;10.03;;;5.90;;
17207;SDS011;8720;48.488;9.202;2023-02-25T01:55:52;11.53;;;5.77;;
17207;SDS011;8720;48.488;9.202;2023-02-25T01:58:20;7.40;;;5.80;;
17207;SDS011;8720;48.488;9.202;2023-02-25T02:00:48;8.93;;;5.50;;
17207;SDS011;8720;48.488;9.202;2023-02-25T02:03:20;6.37;;;5.77;;
17207;SDS011;8720;48.488;9.202;2023-02-25T02:05:55;7.17;;;5.50;;
17207;SDS011;8720;48.488;9.202;2023-02-25T02:08:32;7.67;;;5.60;;
17207;SDS011;8720;48.488;9.202;2023-02-25T02:11:02;7.43;;;6.03;;
17207;SDS011;8720;48.488;9.202;2023-02-25T02:13:30;9.80;;;6.40;;
17207;SDS011;8720;48.488;9.202;2023-02-25T02:16:07;10.40;;;5.80;;
17207;SDS011;8720;48.488;9.202;2023-02-25T02:18:57;7.53;;;5.80;;
17207;SDS011;8720;48.488;9.202;2023-02-25T02:21:44;9.40;;;5.90;;
17207;SDS011;8720;48.488;9.202;2023-02-25T02:24:35;8.23;;;6.37;;
17207;SDS011;8720;48.488;9.202;2023-02-25T02:27:52;9.60;;;6.00;;
17207;SDS011;8720;48.488;9.202;2023-02-25T02:31:13;9.30;;;6.10;;
17207;SDS011;8720;48.488;9.202;2023-02-25T02:33:57;11.60;;;6.90;;
17207;SDS011;8720;48.488;9.202;2023-02-25T02:36:47;9.03;;;6.90;;
17207;SDS011;8720;48.488;9.202;2023-02-25T02:39:33;9.00;;;6.20;;
17207;SDS011;8720;48.488;9.202;2023-02-25T02:42:20;10.07;;;6.63;;
17207;SDS011;8720;48.488;9.202;2023-02-25T02:45:03;9.30;;;6.50;;
17207;SDS011;8720;48.488;9.202;2023-02-25T02:47:44;7.50;;;6.13;;
17207;SDS011;8720;48.488;9.202;2023-02-25T02:50:19;10.47;;;6.27;;
17207;SDS011;8720;48.488;9.202;2023-02-25T02:52:57;7.60;;;5.90;;
17207;SDS011;8720;48.488;9.202;2023-02-25T02:55:32;8.97;;;6.27;;
17207;SDS011;8720;48.488;9.202;2023-02-25T02:58:06;9.83;;;6.40;;
17207;SDS011;8720;48.488;9.202;2023-02-25T03:03:23;10.43;;;7.10;;
17207;SDS011;8720;48.488;9.202;2023-02-25T03:06:02;9.13;;;6.60;;
17207;SDS011;8720;48.488;9.202;2023-02-25T03:08:35;10.60;;;6.77;;
17207;SDS011;8720;48.488;9.202;2023-02-25T03:11:10;8.03;;;6.30;;
17207;SDS011;8720;48.488;9.202;2023-02-25T03:13:38;10.67;;;6.80;;
17207;SDS011;8720;48.488;9.202;2023-02-25T03:16:08;11.80;;;7.13;;
17207;SDS011;8720;48.488;9.202;2023-02-25T03:18:46;10.47;;;6.53;;
17207;SDS011;8720;48.488;9.202;2023-02-25T03:21:22;9.93;;;7.13;;
17207;SDS011;8720;48.488;9.202;2023-02-25T03:24:00;8.53;;;7.10;;
17207;SDS011;8720;48.488;9.202;2023-02-25T03:26:31;10.67;;;7.13;;
17207;SDS011;8720;48.488;9.202;2023-02-25T03:29:02;7.97;;;6.90;;
17207;SDS011;8720;48.488;9.202;2023-02-25T03:31:30;11.93;;;7.30;;
17207;SDS011;8720;48.488;9.202;2023-02-25T03:34:10;9.17;;;7.37;;
17207;SDS011;8720;48.488;9.202;2023-02-25T03:36:43;9.47;;;6.93;;
17207;SDS011;8720;48.488;9.202;2023-02-25T03:39:17;12.20;;;7.77;;
17207;SDS011;8720;48.488;9.202;2023-02-25T03:41:50;10.23;;;7.90;;
17207;SDS011;8720;48.488;9.202;2023-02-25T03:44:21;10.77;;;7.67;;
17207;SDS011;8720;48.488;9.202;2023-02-25T03:46:55;10.83;;;7.70;;
17207;SDS011;8720;48.488;9.202;2023-02-25T03:49:27;9.23;;;7.17;;
17207;SDS011;8720;48.488;9.202;2023-02-25T03:52:02;10.13;;;7.70;;
17207;SDS011;8720;48.488;9.202;2023-02-25T03:54:40;13.63;;;9.43;;
17207;SDS011;8720;48.488;9.202;2023-02-25T03:57:07;11.83;;;8.57;;
17207;SDS011;8720;48.488;9.202;2023-02-25T03:59:35;12.00;;;7.60;;
17207;SDS011;8720;48.488;9.202;2023-02-25T04:02:02;10.50;;;7.73;;
17207;SDS011;8720;48.488;9.202;2023-02-25T04:04:33;10.13;;;6.97;;
17207;SDS011;8720;48.488;9.202;2023-02-25T04:07:00;10.97;;;8.03;;
17207;SDS011;8720;48.488;9.202;2023-02-25T04:09:27;9.37;;;6.80;;
17207;SDS011;8720;48.488;9.202;2023-02-25T04:11:55;10.53;;;7.40;;
17207;SDS011;8720;48.488;9.202;2023-02-25T04:14:22;12.43;;;7.13;;
17207;SDS011;8720;48.488;9.202;2023-02-25T04:16:50;11.57;;;6.60;;
17207;SDS011;8720;48.488;9.202;2023-02-25T04:19:17;9.93;;;7.60;;
17207;SDS011;8720;48.488;9.202;2023-02-25T04:21:46;14.30;;;6.80;;
17207;SDS011;8720;48.488;9.202;2023-02-25T04:24:14;8.90;;;6.13;;
17207;SDS011;8720;48.488;9.202;2023-02-25T04:26:41;9.43;;;6.20;;
17207;SDS011;8720;48.488;9.202;2023-02-25T04:29:08;7.00;;;5.70;;
17207;SDS011;8720;48.488;9.202;2023-02-25T04:31:35;8.57;;;5.50;;
17207;SDS011;8720;48.488;9.202;2023-02-25T04:34:03;6.20;;;5.10;;
17207;SDS011;8720;48.488;9.202;2023-02-25T04:36:31;5.57;;;4.97;;
17207;SDS011;8720;48.488;9.202;2023-02-25T04:39:03;7.67;;;5.23;;
17207;SDS011;8720;48.488;9.202;2023-02-25T04:41:33;10.03;;;5.53;;
17207;SDS011;8720;48.488;9.202;2023-02-25T04:44:01;7.33;;;4.77;;
17207;SDS011;8720;48.488;9.202;2023-02-25T04:46:30;10.53;;;5.97;;
17207;SDS011;8720;48.488;9.202;2023-02-25T04:49:00;9.40;;;5.50;;
17207;SDS011;8720;48.488;9.202;2023-02-25T04:51:28;8.50;;;5.60;;
17207;SDS011;8720;48.488;9.202;2023-02-25T04:53:56;8.57;;;5.80;;
17207;SDS011;8720;48.488;9.202;2023-02-25T04:56:25;7.17;;;5.93;;
17207;SDS011;8720;48.488;9.202;2023-02-25T04:58:52;8.10;;;5.90;;
17207;SDS011;8720;48.488;9.202;2023-02-25T05:01:19;7.33;;;5.73;;
17207;SDS011;8720;48.488;9.202;2023-02-25T05:03:47;11.20;;;5.97;;
17207;SDS011;8720;48.488;9.202;2023-02-25T05:06:14;8.97;;;6.60;;
17207;SDS011;8720;48.488;9.202;2023-02-25T05:08:41;9.83;;;6.73;;
17207;SDS011;8720;48.488;9.202;2023-02-25T05:11:09;10.60;;;6.87;;
17207;SDS011;8720;48.488;9.202;2023-02-25T05:13:37;10.33;;;7.10;;
17207;SDS011;8720;48.488;9.202;2023-02-25T05:16:05;9.53;;;6.47;;
17207;SDS011;8720;48.488;9.202;2023-02-25T05:18:35;9.37;;;5.80;;
17207;SDS011;8720;48.488;9.202;2023-02-25T05:21:07;8.23;;;6.30;;
17207;SDS011;8720;48.488;9.202;2023-02-25T05:23:36;9.73;;;6.57;;
17207;SDS011;8720;48.488;9.202;2023-02-25T05:26:04;7.20;;;5.70;;
17207;SDS011;8720;48.488;9.202;2023-02-25T05:28:32;6.73;;;5.10;;
17207;SDS011;8720;48.488;9.202;2023-02-25T05:31:04;8.40;;;4.33;;
17207;SDS011;8720;48.488;9.202;2023-02-25T05:33:32;7.93;;;3.67;;
17207;SDS011;8720;48.488;9.202;2023-02-25T05:36:01;5.40;;;3.70;;
17207;SDS011;8720;48.488;9.202;2023-02-25T05:38:31;6.53;;;3.73;;
17207;SDS011;8720;48.488;9.202;2023-02-25T05:40:59;5.50;;;3.43;;
17207;SDS011;8720;48.488;9.202;2023-02-25T05:43:27;9.83;;;3.40;;
17207;SDS011;8720;48.488;9.202;2023-02-25T05:45:55;4.23;;;2.80;;
17207;SDS011;8720;48.488;9.202;2023-02-25T05:48:25;5.00;;;2.80;;
17207;SDS011;8720;48.488;9.202;2023-02-25T05:50:58;4.80;;;2.90;;
17207;SDS011;8720;48.488;9.202;2023-02-25T05:53:27;5.30;;;2.70;;
17207;SDS011;8720;48.488;9.202;2023-02-25T05:55:55;4.40;;;2.63;;
17207;SDS011;8720;48.488;9.202;2023-02-25T05:58:22;4.83;;;2.20;;
17207;SDS011;8720;48.488;9.202;2023-02-25T06:00:50;3.33;;;2.00;;
17207;SDS011;8720;48.488;9.202;2023-02-25T06:03:18;6.67;;;2.57;;
17207;SDS011;8720;48.488;9.202;2023-02-25T06:05:46;6.00;;;2.70;;
17207;SDS011;8720;48.488;9.202;2023-02-25T06:08:14;6.80;;;2.97;;
17207;SDS011;8720;48.488;9.202;2023-02-25T06:10:41;4.10;;;2.70;;
17207;SDS011;8720;48.488;9.202;2023-02-25T06:13:09;4.70;;;2.80;;
17207;SDS011;8720;48.488;9.202;2023-02-25T06:15:37;5.53;;;3.30;;
17207;SDS011;8720;48.488;9.202;2023-02-25T06:18:07;5.93;;;3.10;;
17207;SDS011;8720;48.488;9.202;2023-02-25T06:20:35;4.43;;;2.90;;
17207;SDS011;8720;48.488;9.202;2023-02-25T06:23:03;7.20;;;4.37;;
17207;SDS011;8720;48.488;9.202;2023-02-25T06:25:31;7.00;;;4.20;;
17207;SDS011;8720;48.488;9.202;2023-02-25T06:27:59;7.25;;;4.20;;
17207;SDS011;8720;48.488;9.202;2023-02-25T06:30:27;7.87;;;4.17;;
17207;SDS011;8720;48.488;9.202;2023-02-25T06:32:56;6.63;;;3.93;;
17207;SDS011;8720;48.488;9.202;2023-02-25T06:35:23;6.57;;;4.40;;
17207;SDS011;8720;48.488;9.202;2023-02-25T06:37:53;7.70;;;4.00;;
17207;SDS011;8720;48.488;9.202;2023-02-25T06:40:23;7.93;;;4.00;;
17207;SDS011;8720;48.488;9.202;2023-02-25T06:42:51;5.57;;;3.00;;
17207;SDS011;8720;48.488;9.202;2023-02-25T06:45:18;6.67;;;3.40;;
17207;SDS011;8720;48.488;9.202;2023-02-25T06:47:46;4.53;;;2.70;;
17207;SDS011;8720;48.488;9.202;2023-02-25T06:50:13;6.13;;;3.63;;
17207;SDS011;8720;48.488;9.202;2023-02-25T06:52:41;5.60;;;4.43;;
17207;SDS011;8720;48.488;9.202;2023-02-25T06:55:09;5.20;;;2.90;;
17207;SDS011;8720;48.488;9.202;2023-02-25T06:57:37;4.53;;;3.20;;
17207;SDS011;8720;48.488;9.202;2023-02-25T07:00:05;6.60;;;3.17;;
17207;SDS011;8720;48.488;9.202;2023-02-25T07:02:34;5.50;;;3.63;;
17207;SDS011;8720;48.488;9.202;2023-02-25T07:05:01;5.30;;;2.80;;
17207;SDS011;8720;48.488;9.202;2023-02-25T07:07:29;6.20;;;2.80;;
17207;SDS011;8720;48.488;9.202;2023-02-25T07:09:57;3.63;;;2.50;;
17207;SDS011;8720;48.488;9.202;2023-02-25T07:12:25;3.83;;;2.70;;
17207;SDS011;8720;48.488;9.202;2023-02-25T07:14:53;3.67;;;2.50;;
17207;SDS011;8720;48.488;9.202;2023-02-25T07:17:21;5.40;;;2.73;;
17207;SDS011;8720;48.488;9.202;2023-02-25T07:19:48;4.30;;;2.73;;
17207;SDS011;8720;48.488;9.202;2023-02-25T07:22:16;3.30;;;2.90;;
17207;SDS011;8720;48.488;9.202;2023-02-25T07:24:44;5.97;;;3.40;;
17207;SDS011;8720;48.488;9.202;2023-02-25T07:27:12;7.83;;;3.07;;
17207;SDS011;8720;48.488;9.202;2023-02-25T07:29:40;6.27;;;3.10;;
17207;SDS011;8720;48.488;9.202;2023-02-25T07:32:08;3.50;;;2.63;;
17207;SDS011;8720;48.488;9.202;2023-02-25T07:34:36;4.67;;;2.80;;
17207;SDS011;8720;48.488;9.202;2023-02-25T07:37:03;3.40;;;2.90;;
17207;SDS011;8720;48.488;9.202;2023-02-25T07:39:31;4.50;;;3.10;;
17207;SDS011;8720;48.488;9.202;2023-02-25T07:41:58;7.10;;;2.60;;
17207;SDS011;8720;48.488;9.202;2023-02-25T07:44:26;5.13;;;3.60;;
17207;SDS011;8720;48.488;9.202;2023-02-25T07:46:54;6.20;;;3.50;;
17207;SDS011;8720;48.488;9.202;2023-02-25T07:49:23;5.83;;;3.13;;
17207;SDS011;8720;48.488;9.202;2023-02-25T07:51:50;6.50;;;3.30;;
17207;SDS011;8720;48.488;9.202;2023-02-25T07:54:17;7.73;;;3.50;;
17207;SDS011;8720;48.488;9.202;2023-02-25T07:56:45;6.93;;;4.10;;
17207;SDS011;8720;48.488;9.202;2023-02-25T07:59:15;7.57;;;3.13;;
17207;SDS011;8720;48.488;9.202;2023-02-25T08:01:43;4.00;;;2.27;;
17207;SDS011;8720;48.488;9.202;2023-02-25T08:04:11;5.03;;;2.37;;
17207;SDS011;8720;48.488;9.202;2023-02-25T08:06:40;3.53;;;2.80;;
17207;SDS011;8720;48.488;9.202;2023-02-25T08:09:08;5.13;;;2.73;;
17207;SDS011;8720;48.488;9.202;2023-02-25T08:11:37;6.27;;;2.87;;
17207;SDS011;8720;48.488;9.202;2023-02-25T08:14:05;6.53;;;2.70;;
17207;SDS011;8720;48.488;9.202;2023-02-25T08:16:33;5.90;;;3.03;;
17207;SDS011;8720;48.488;9.202;2023-02-25T08:19:00;4.30;;;2.73;;
17207;SDS011;8720;48.488;9.202;2023-02-25T08:21:28;6.03;;;2.40;;
17207;SDS011;8720;48.488;9.202;2023-02-25T08:23:58;4.17;;;2.83;;
17207;SDS011;8720;48.488;9.202;2023-02-25T08:26:25;4.60;;;3.13;;
17207;SDS011;8720;48.488;9.202;2023-02-25T08:28:53;3.40;;;2.73;;
17207;SDS011;8720;48.488;9.202;2023-02-25T08:31:23;4.73;;;2.90;;
17207;SDS011;8720;48.488;9.202;2023-02-25T08:33:51;4.97;;;2.73;;
17207;SDS011;8720;48.488;9.202;2023-02-25T08:36:20;5.77;;;2.77;;
17207;SDS011;8720;48.488;9.202;2023-02-25T08:38:50;5.00;;;2.23;;
17207;SDS011;8720;48.488;9.202;2023-02-25T08:41:19;3.83;;;2.53;;
17207;SDS011;8720;48.488;9.202;2023-02-25T08:43:48;7.03;;;2.23;;
17207;SDS011;8720;48.488;9.202;2023-02-25T08:46:18;4.50;;;1.87;;
17207;SDS011;8720;48.488;9.202;2023-02-25T08:48:47;2.97;;;1.70;;
17207;SDS011;8720;48.488;9.202;2023-02-25T08:51:15;2.70;;;1.90;;
17207;SDS011;8720;48.488;9.202;2023-02-25T08:53:44;1.70;;;1.43;;
17207;SDS011;8720;48.488;9.202;2023-02-25T08:56:12;2.23;;;1.97;;
17207;SDS011;8720;48.488;9.202;2023-02-25T08:58:43;3.00;;;1.80;;
17207;SDS011;8720;48.488;9.202;2023-02-25T09:01:11;2.80;;;2.07;;
17207;SDS011;8720;48.488;9.202;2023-02-25T09:03:43;4.00;;;1.90;;
17207;SDS011;8720;48.488;9.202;2023-02-25T09:06:16;3.00;;;1.70;;
17207;SDS011;8720;48.488;9.202;2023-02-25T09:08:44;5.43;;;1.90;;
17207;SDS011;8720;48.488;9.202;2023-02-25T09:11:12;5.70;;;2.40;;
17207;SDS011;8720;48.488;9.202;2023-02-25T09:13:39;2.60;;;2.40;;
17207;SDS011;8720;48.488;9.202;2023-02-25T09:16:08;4.43;;;2.50;;
17207;SDS011;8720;48.488;9.202;2023-02-25T09:18:42;3.20;;;2.50;;
17207;SDS011;8720;48.488;9.202;2023-02-25T09:21:11;3.83;;;2.10;;
17207;SDS011;8720;48.488;9.202;2023-02-25T09:23:39;3.47;;;2.03;;
17207;SDS011;8720;48.488;9.202;2023-02-25T09:26:07;3.10;;;1.90;;
17207;SDS011;8720;48.488;9.202;2023-02-25T09:28:35;5.97;;;2.13;;
17207;SDS011;8720;48.488;9.202;2023-02-25T09:31:03;7.37;;;2.43;;
17207;SDS011;8720;48.488;9.202;2023-02-25T09:33:32;6.57;;;2.83;;
17207;SDS011;8720;48.488;9.202;2023-02-25T09:36:03;5.40;;;2.13;;
17207;SDS011;8720;48.488;9.202;2023-02-25T09:38:32;3.00;;;2.20;;
17207;SDS011;8720;48.488;9.202;2023-02-25T09:41:00;4.80;;;2.13;;
17207;SDS011;8720;48.488;9.202;2023-02-25T09:43:28;2.83;;;1.80;;
17207;SDS011;8720;48.488;9.202;2023-02-25T09:46:04;1.90;;;1.47;;
17207;SDS011;8720;48.488;9.202;2023-02-25T09:48:39;4.03;;;1.87;;
17207;SDS011;8720;48.488;9.202;2023-02-25T09:51:18;4.67;;;1.57;;
17207;SDS011;8720;48.488;9.202;2023-02-25T09:53:48;2.97;;;1.63;;
17207;SDS011;8720;48.488;9.202;2023-02-25T09:56:22;5.50;;;2.47;;
17207;SDS011;8720;48.488;9.202;2023-02-25T09:58:53;5.23;;;2.60;;
17207;SDS011;8720;48.488;9.202;2023-02-25T10:01:24;3.90;;;2.50;;
17207;SDS011;8720;48.488;9.202;2023-02-25T10:04:04;3.33;;;2.10;;
17207;SDS011;8720;48.488;9.202;2023-02-25T10:06:42;8.00;;;3.33;;
17207;SDS011;8720;48.488;9.202;2023-02-25T10:09:15;6.83;;;2.23;;
17207;SDS011;8720;48.488;9.202;2023-02-25T10:11:56;9.07;;;2.37;;
17207;SDS011;8720;48.488;9.202;2023-02-25T10:14:41;3.57;;;2.07;;
17207;SDS011;8720;48.488;9.202;2023-02-25T10:17:28;4.23;;;2.00;;
17207;SDS011;8720;48.488;9.202;2023-02-25T10:20:24;4.13;;;2.60;;
17207;SDS011;8720;48.488;9.202;2023-02-25T10:23:27;2.60;;;1.67;;
17207;SDS011;8720;48.488;9.202;2023-02-25T10:26:10;3.97;;;1.90;;
17207;SDS011;8720;48.488;9.202;2023-02-25T10:28:44;2.10;;;1.90;;
17207;SDS011;8720;48.488;9.202;2023-02-25T10:31:18;4.13;;;2.30;;
17207;SDS011;8720;48.488;9.202;2023-02-25T10:33:49;4.23;;;1.80;;
17207;SDS011;8720;48.488;9.202;2023-02-25T10:36:22;4.83;;;2.10;;
17207;SDS011;8720;48.488;9.202;2023-02-25T10:38:56;6.27;;;2.73;;
17207;SDS011;8720;48.488;9.202;2023-02-25T10:41:24;5.43;;;2.90;;
17207;SDS011;8720;48.488;9.202;2023-02-25T10:43:53;6.17;;;2.63;;
17207;SDS011;8720;48.488;9.202;2023-02-25T10:46:23;2.87;;;1.80;;
17207;SDS011;8720;48.488;9.202;2023-02-25T10:49:00;5.80;;;1.50;;
17207;SDS011;8720;48.488;9.202;2023-02-25T10:51:47;4.20;;;1.30;;
17207;SDS011;8720;48.488;9.202;2023-02-25T10:54:26;1.53;;;1.43;;
17207;SDS011;8720;48.488;9.202;2023-02-25T10:56:53;1.73;;;1.33;;
17207;SDS011;8720;48.488;9.202;2023-02-25T10:59:24;2.20;;;1.40;;
17207;SDS011;8720;48.488;9.202;2023-02-25T11:01:56;2.23;;;1.30;;
17207;SDS011;8720;48.488;9.202;2023-02-25T11:04:27;2.23;;;1.50;;
17207;SDS011;8720;48.488;9.202;2023-02-25T11:07:01;3.43;;;1.40;;
17207;SDS011;8720;48.488;9.202;2023-02-25T11:10:07;2.03;;;1.50;;
17207;SDS011;8720;48.488;9.202;2023-02-25T11:12:42;3.73;;;1.90;;
17207;SDS011;8720;48.488;9.202;2023-02-25T11:18:05;3.80;;;1.50;;
17207;SDS011;8720;48.488;9.202;2023-02-25T11:20:52;2.60;;;1.53;;
17207;SDS011;8720;48.488;9.202;2023-02-25T11:23:25;2.73;;;1.60;;
17207;SDS011;8720;48.488;9.202;2023-02-25T11:25:59;8.40;;;1.83;;
17207;SDS011;8720;48.488;9.202;2023-02-25T11:28:29;3.53;;;1.30;;
17207;SDS011;8720;48.488;9.202;2023-02-25T11:31:04;2.00;;;1.80;;
17207;SDS011;8720;48.488;9.202;2023-02-25T11:33:42;4.50;;;1.90;;
17207;SDS011;8720;48.488;9.202;2023-02-25T11:36:19;2.80;;;1.33;;
17207;SDS011;8720;48.488;9.202;2023-02-25T11:38:50;2.17;;;1.20;;
17207;SDS011;8720;48.488;9.202;2023-02-25T11:41:38;1.73;;;1.50;;
17207;SDS011;8720;48.488;9.202;2023-02-25T11:44:21;4.43;;;1.73;;
17207;SDS011;8720;48.488;9.202;2023-02-25T11:46:57;2.27;;;1.83;;
17207;SDS011;8720;48.488;9.202;2023-02-25T11:49:46;2.77;;;1.90;;
17207;SDS011;8720;48.488;9.202;2023-02-25T11:52:36;2.23;;;1.80;;
17207;SDS011;8720;48.488;9.202;2023-02-25T11:55:15;2.40;;;1.80;;
17207;SDS011;8720;48.488;9.202;2023-02-25T11:58:00;2.23;;;1.60;;
17207;SDS011;8720;48.488;9.202;2023-02-25T12:00:41;2.97;;;1.90;;
17207;SDS011;8720;48.488;9.202;2023-02-25T12:06:28;3.23;;;1.80;;
17207;SDS011;8720;48.488;9.202;2023-02-25T12:09:43;2.93;;;1.63;;
17207;SDS011;8720;48.488;9.202;2023-02-25T12:12:54;2.70;;;1.80;;
17207;SDS011;8720;48.488;9.202;2023-02-25T12:22:51;3.83;;;1.70;;
17207;SDS011;8720;48.488;9.202;2023-02-25T12:25:54;3.10;;;1.50;;
17207;SDS011;8720;48.488;9.202;2023-02-25T12:28:48;3.07;;;1.90;;
17207;SDS011;8720;48.488;9.202;2023-02-25T12:31:46;1.83;;;1.57;;
17207;SDS011;8720;48.488;9.202;2023-02-25T12:37:57;7.13;;;1.73;;
17207;SDS011;8720;48.488;9.202;2023-02-25T12:44:08;2.47;;;1.20;;
17207;SDS011;8720;48.488;9.202;2023-02-25T12:47:09;3.67;;;1.53;;
17207;SDS011;8720;48.488;9.202;2023-02-25T12:53:20;3.83;;;1.63;;
17207;SDS011;8720;48.488;9.202;2023-02-25T12:56:09;1.73;;;1.40;;
17207;SDS011;8720;48.488;9.202;2023-02-25T12:59:36;3.03;;;1.77;;
17207;SDS011;8720;48.488;9.202;2023-02-25T13:02:41;3.00;;;1.63;;
17207;SDS011;8720;48.488;9.202;2023-02-25T13:05:46;3.00;;;1.73;;
17207;SDS011;8720;48.488;9.202;2023-02-25T13:08:52;3.13;;;1.80;;
17207;SDS011;8720;48.488;9.202;2023-02-25T13:11:50;3.17;;;1.70;;
17207;SDS011;8720;48.488;9.202;2023-02-25T13:20:50;2.60;;;1.63;;
17207;SDS011;8720;48.488;9.202;2023-02-25T13:23:46;3.60;;;1.90;;
17207;SDS011;8720;48.488;9.202;2023-02-25T13:27:01;2.87;;;1.90;;
17207;SDS011;8720;48.488;9.202;2023-02-25T13:32:59;2.87;;;1.87;;
17207;SDS011;8720;48.488;9.202;2023-02-25T13:36:25;3.40;;;1.73;;
17207;SDS011;8720;48.488;9.202;2023-02-25T13:39:22;3.70;;;1.50;;
17207;SDS011;8720;48.488;9.202;2023-02-25T13:42:28;2.10;;;1.40;;
17207;SDS011;8720;48.488;9.202;2023-02-25T13:45:26;3.60;;;1.80;;
17207;SDS011;8720;48.488;9.202;2023-02-25T13:48:16;3.00;;;1.80;;
17207;SDS011;8720;48.488;9.202;2023-02-25T13:51:27;3.80;;;1.77;;
17207;SDS011;8720;48.488;9.202;2023-02-25T13:54:25;2.60;;;1.90;;
17207;SDS011;8720;48.488;9.202;2023-02-25T13:57:10;2.10;;;1.40;;
17207;SDS011;8720;48.488;9.202;2023-02-25T14:00:23;3.07;;;1.40;;
17207;SDS011;8720;48.488;9.202;2023-02-25T14:03:45;3.27;;;1.67;;
17207;SDS011;8720;48.488;9.202;2023-02-25T14:10:24;3.40;;;1.70;;
17207;SDS011;8720;48.488;9.202;2023-02-25T14:13:22;3.00;;;1.80;;
17207;SDS011;8720;48.488;9.202;2023-02-25T14:16:17;4.80;;;2.07;;
17207;SDS011;8720;48.488;9.202;2023-02-25T14:19:16;2.43;;;1.47;;
17207;SDS011;8720;48.488;9.202;2023-02-25T14:22:10;3.53;;;1.80;;
17207;SDS011;8720;48.488;9.202;2023-02-25T14:24:55;2.30;;;1.70;;
17207;SDS011;8720;48.488;9.202;2023-02-25T14:27:40;3.07;;;1.97;;
17207;SDS011;8720;48.488;9.202;2023-02-25T14:30:24;7.40;;;1.90;;
17207;SDS011;8720;48.488;9.202;2023-02-25T14:33:10;2.50;;;1.60;;
17207;SDS011;8720;48.488;9.202;2023-02-25T14:36:14;2.60;;;1.50;;
17207;SDS011;8720;48.488;9.202;2023-02-25T14:39:14;3.47;;;1.90;;
17207;SDS011;8720;48.488;9.202;2023-02-25T14:42:06;4.47;;;1.70;;
17207;SDS011;8720;48.488;9.202;2023-02-25T14:44:52;3.23;;;1.87;;
17207;SDS011;8720;48.488;9.202;2023-02-25T14:47:28;4.70;;;1.80;;
17207;SDS011;8720;48.488;9.202;2023-02-25T14:50:02;3.37;;;1.53;;
17207;SDS011;8720;48.488;9.202;2023-02-25T14:52:40;5.20;;;1.93;;
17207;SDS011;8720;48.488;9.202;2023-02-25T14:59:31;3.30;;;1.73;;
17207;SDS011;8720;48.488;9.202;2023-02-25T15:02:40;2.97;;;1.70;;
17207;SDS011;8720;48.488;9.202;2023-02-25T15:05:44;3.33;;;1.80;;
17207;SDS011;8720;48.488;9.202;2023-02-25T15:08:38;3.17;;;1.90;;
17207;SDS011;8720;48.488;9.202;2023-02-25T15:14:52;3.77;;;1.87;;
17207;SDS011;8720;48.488;9.202;2023-02-25T15:18:20;2.40;;;1.50;;
17207;SDS011;8720;48.488;9.202;2023-02-25T15:21:27;4.83;;;2.33;;
17207;SDS011;8720;48.488;9.202;2023-02-25T15:24:08;4.33;;;1.90;;
17207;SDS011;8720;48.488;9.202;2023-02-25T15:26:58;5.00;;;2.23;;
17207;SDS011;8720;48.488;9.202;2023-02-25T15:32:23;3.07;;;1.60;;
17207;SDS011;8720;48.488;9.202;2023-02-25T15:34:56;3.63;;;2.00;;
17207;SDS011;8720;48.488;9.202;2023-02-25T15:37:29;3.93;;;1.97;;
17207;SDS011;8720;48.488;9.202;2023-02-25T15:46:36;5.17;;;2.17;;
17207;SDS011;8720;48.488;9.202;2023-02-25T15:49:20;4.23;;;2.40;;
17207;SDS011;8720;48.488;9.202;2023-02-25T15:51:57;4.70;;;1.80;;
17207;SDS011;8720;48.488;9.202;2023-02-25T15:54:46;2.87;;;2.10;;
17207;SDS011;8720;48.488;9.202;2023-02-25T15:57:35;6.10;;;3.00;;
17207;SDS011;8720;48.488;9.202;2023-02-25T16:06:14;8.60;;;5.10;;
17207;SDS011;8720;48.488;9.202;2023-02-25T16:08:48;6.00;;;4.80;;
17207;SDS011;8720;48.488;9.202;2023-02-25T16:11:27;7.30;;;4.50;;
17207;SDS011;8720;48.488;9.202;2023-02-25T16:14:02;5.83;;;3.27;;
17207;SDS011;8720;48.488;9.202;2023-02-25T16:16:38;5.00;;;2.87;;
17207;SDS011;8720;48.488;9.202;2023-02-25T16:19:14;3.40;;;2.40;;
17207;SDS011;8720;48.488;9.202;2023-02-25T16:21:47;3.20;;;2.90;;
17207;SDS011;8720;48.488;9.202;2023-02-25T16:24:21;4.07;;;2.97;;
17207;SDS011;8720;48.488;9.202;2023-02-25T16:26:51;3.43;;;2.30;;
17207;SDS011;8720;48.488;9.202;2023-02-25T16:29:29;6.93;;;3.77;;
17207;SDS011;8720;48.488;9.202;2023-02-25T16:32:17;5.10;;;3.00;;
17207;SDS011;8720;48.488;9.202;2023-02-25T16:35:02;3.60;;;2.50;;
17207;SDS011;8720;48.488;9.202;2023-02-25T16:37:40;5.50;;;3.40;;
17207;SDS011;8720;48.488;9.202;2023-02-25T16:40:20;10.17;;;3.37;;
17207;SDS011;8720;48.488;9.202;2023-02-25T16:42:53;3.70;;;2.83;;
17207;SDS011;8720;48.488;9.202;2023-02-25T16:45:24;3.83;;;2.83;;
17207;SDS011;8720;48.488;9.202;2023-02-25T16:47:58;4.73;;;2.77;;
17207;SDS011;8720;48.488;9.202;2023-02-25T16:50:31;5.63;;;3.40;;
17207;SDS011;8720;48.488;9.202;2023-02-25T16:53:01;7.90;;;5.10;;
17207;SDS011;8720;48.488;9.202;2023-02-25T16:55:37;9.37;;;3.40;;
17207;SDS011;8720;48.488;9.202;2023-02-25T16:58:09;5.93;;;3.00;;